createdAt,value
2022-08-22T00:00:23.349Z,3.90
2022-08-22T00:02:55.722Z,4.40
2022-08-22T00:03:00.233Z,3.50
2022-08-22T00:03:08.059Z,4.30
2022-08-22T00:03:28.769Z,3.80
2022-08-22T00:06:02.677Z,15.80
2022-08-22T00:08:41.201Z,25.30
2022-08-22T00:11:12.825Z,9.70
2022-08-22T00:14:02.164Z,5.70
2022-08-22T00:16:35.686Z,5.10
2022-08-22T00:19:13.962Z,4.50
2022-08-22T00:22:04.612Z,3.90
2022-08-22T00:24:47.866Z,3.70
2022-08-22T00:29:54.388Z,3.60
2022-08-22T00:32:37.093Z,4.20
2022-08-22T00:35:23.162Z,4.60
2022-08-22T00:38:03.334Z,4.00
2022-08-22T00:40:42.467Z,4.00
2022-08-22T00:43:10.051Z,4.00
2022-08-22T00:45:57.245Z,4.30
2022-08-22T00:48:46.884Z,4.50
2022-08-22T00:51:23.602Z,4.60
2022-08-22T00:54:16.762Z,4.50
2022-08-22T00:57:13.138Z,4.20
2022-08-22T00:59:56.683Z,4.10
2022-08-22T01:02:40.793Z,4.50
2022-08-22T01:05:39.322Z,4.50
2022-08-22T01:08:39.052Z,4.20
2022-08-22T01:11:28.002Z,4.60
2022-08-22T01:14:10.774Z,4.30
2022-08-22T01:17:23.253Z,4.20
2022-08-22T01:20:21.152Z,4.60
2022-08-22T01:23:26.116Z,4.40
2022-08-22T01:26:21.228Z,4.50
2022-08-22T01:29:28.314Z,4.90
2022-08-22T01:32:17.318Z,4.60
2022-08-22T01:34:53.786Z,4.60
2022-08-22T01:37:43.508Z,4.50
2022-08-22T01:40:27.208Z,4.90
2022-08-22T01:43:59.282Z,4.90
2022-08-22T01:46:31.865Z,5.40
2022-08-22T01:49:18.282Z,4.60
2022-08-22T01:52:11.956Z,4.90
2022-08-22T01:54:57.740Z,4.90
2022-08-22T01:57:26.979Z,4.90
2022-08-22T01:59:58.222Z,5.30
2022-08-22T02:03:01.178Z,5.00
2022-08-22T02:05:37.332Z,4.40
2022-08-22T02:08:23.991Z,4.90
2022-08-22T02:11:02.828Z,5.40
2022-08-22T02:13:44.035Z,5.30
2022-08-22T02:16:20.140Z,4.90
2022-08-22T02:18:54.057Z,5.10
2022-08-22T02:21:48.565Z,5.20
2022-08-22T02:24:39.004Z,5.00
2022-08-22T02:27:31.359Z,5.20
2022-08-22T02:30:02.753Z,5.00
2022-08-22T02:32:41.119Z,5.10
2022-08-22T02:35:18.103Z,4.90
2022-08-22T02:38:10.634Z,5.00
2022-08-22T02:41:04.095Z,5.00
2022-08-22T02:43:42.017Z,4.80
2022-08-22T02:46:28.616Z,5.20
2022-08-22T02:49:09.055Z,5.10
2022-08-22T02:52:02.444Z,5.50
2022-08-22T02:54:47.397Z,4.60
2022-08-22T02:57:54.000Z,4.40
2022-08-22T03:00:33.014Z,5.10
2022-08-22T03:03:20.314Z,4.70
2022-08-22T03:05:59.135Z,4.60
2022-08-22T03:08:47.452Z,4.80
2022-08-22T03:11:27.763Z,4.90
2022-08-22T03:14:01.588Z,4.60
2022-08-22T03:16:40.345Z,5.20
2022-08-22T03:19:22.377Z,4.80
2022-08-22T03:22:04.753Z,5.50
2022-08-22T03:24:55.889Z,5.40
2022-08-22T03:27:33.487Z,5.60
2022-08-22T03:30:30.263Z,4.80
2022-08-22T03:33:20.359Z,5.10
2022-08-22T03:35:48.212Z,4.90
2022-08-22T03:38:33.886Z,5.80
2022-08-22T03:41:20.143Z,4.60
2022-08-22T03:44:06.507Z,4.80
2022-08-22T03:47:09.512Z,4.90
2022-08-22T03:49:49.408Z,5.10
2022-08-22T03:53:03.622Z,5.20
2022-08-22T03:56:08.707Z,4.70
2022-08-22T03:58:42.286Z,4.30
2022-08-22T04:01:47.247Z,4.50
2022-08-22T04:04:43.327Z,5.40
2022-08-22T04:07:48.336Z,4.70
2022-08-22T04:10:44.797Z,5.20
2022-08-22T04:13:46.429Z,4.90
2022-08-22T04:16:42.107Z,4.70
2022-08-22T04:19:44.989Z,5.20
2022-08-22T04:22:26.785Z,5.10
2022-08-22T04:25:08.210Z,5.80
2022-08-22T04:27:52.971Z,4.70
2022-08-22T04:30:25.933Z,4.70
2022-08-22T04:33:04.956Z,5.20
2022-08-22T04:35:37.292Z,4.90
2022-08-22T04:38:12.565Z,5.90
2022-08-22T04:40:55.850Z,5.30
2022-08-22T04:43:32.532Z,4.70
2022-08-22T04:46:32.101Z,4.70
2022-08-22T04:49:06.624Z,5.50
2022-08-22T04:51:40.638Z,5.10
2022-08-22T04:54:20.156Z,5.10
2022-08-22T04:57:15.606Z,5.20
2022-08-22T04:59:44.051Z,5.00
2022-08-22T05:02:19.814Z,5.70
2022-08-22T05:04:59.173Z,4.80
2022-08-22T05:07:35.952Z,5.10
2022-08-22T05:10:16.272Z,5.60
2022-08-22T05:13:00.573Z,5.20
2022-08-22T05:15:35.381Z,5.80
2022-08-22T05:18:11.400Z,5.00
2022-08-22T05:20:40.501Z,4.80
2022-08-22T05:23:22.730Z,5.40
2022-08-22T05:25:54.360Z,5.90
2022-08-22T05:28:42.263Z,5.40
2022-08-22T05:31:14.959Z,5.50
2022-08-22T05:36:15.060Z,5.10
2022-08-22T05:38:51.379Z,4.90
2022-08-22T05:41:26.568Z,5.00
2022-08-22T05:43:56.005Z,5.00
2022-08-22T05:46:40.811Z,5.40
2022-08-22T05:49:16.387Z,4.50
2022-08-22T05:52:05.179Z,5.50
2022-08-22T05:54:43.411Z,4.80
2022-08-22T05:57:19.606Z,4.90
2022-08-22T05:59:53.582Z,4.40
2022-08-22T06:02:28.656Z,4.90
2022-08-22T06:05:00.947Z,5.40
2022-08-22T06:07:48.380Z,5.20
2022-08-22T06:10:27.444Z,5.30
2022-08-22T06:13:12.895Z,5.10
2022-08-22T06:16:11.776Z,5.30
2022-08-22T06:18:41.698Z,5.00
2022-08-22T06:21:13.719Z,5.00
2022-08-22T06:23:49.799Z,4.40
2022-08-22T06:26:20.499Z,4.20
2022-08-22T06:28:55.131Z,5.10
2022-08-22T06:31:29.981Z,5.00
2022-08-22T06:34:06.514Z,5.00
2022-08-22T06:36:37.544Z,4.80
2022-08-22T06:39:11.008Z,5.50
2022-08-22T06:42:03.890Z,4.90
2022-08-22T06:47:30.470Z,4.90
2022-08-22T06:50:03.582Z,4.80
2022-08-22T06:52:35.740Z,4.70
2022-08-22T06:55:07.433Z,5.30
2022-08-22T06:57:42.160Z,5.10
2022-08-22T07:00:13.923Z,4.90
2022-08-22T07:02:46.013Z,4.90
2022-08-22T07:05:24.285Z,5.20
2022-08-22T07:07:52.999Z,4.90
2022-08-22T07:10:23.375Z,5.10
2022-08-22T07:12:54.185Z,4.90
2022-08-22T07:15:42.318Z,5.10
2022-08-22T07:18:18.309Z,4.70
2022-08-22T07:20:56.215Z,4.50
2022-08-22T07:23:40.432Z,5.20
2022-08-22T07:26:18.226Z,4.30
2022-08-22T07:28:58.360Z,4.30
2022-08-22T07:31:40.092Z,4.60
2022-08-22T07:34:46.790Z,4.20
2022-08-22T07:37:24.488Z,4.00
2022-08-22T07:39:52.068Z,4.20
2022-08-22T07:42:30.371Z,4.50
2022-08-22T07:45:03.430Z,4.70
2022-08-22T07:47:57.247Z,4.40
2022-08-22T07:50:31.880Z,4.20
2022-08-22T07:53:13.509Z,4.20
2022-08-22T07:55:49.365Z,4.20
2022-08-22T07:58:19.137Z,3.80
2022-08-22T08:00:49.046Z,4.00
2022-08-22T08:03:20.848Z,3.90
2022-08-22T08:05:49.182Z,4.40
2022-08-22T08:08:34.248Z,4.10
2022-08-22T08:11:03.224Z,4.40
2022-08-22T08:13:37.190Z,4.50
2022-08-22T08:16:09.096Z,3.90
2022-08-22T08:18:39.276Z,4.00
2022-08-22T08:21:10.706Z,4.30
2022-08-22T08:23:43.642Z,4.00
2022-08-22T08:26:18.173Z,3.60
2022-08-22T08:28:52.048Z,3.40
2022-08-22T08:31:25.115Z,3.50
2022-08-22T08:34:00.299Z,3.60
2022-08-22T08:36:37.050Z,3.80
2022-08-22T08:39:18.031Z,3.60
2022-08-22T08:42:00.614Z,3.00
2022-08-22T08:44:46.265Z,3.50
2022-08-22T08:47:19.836Z,3.80
2022-08-22T08:50:29.401Z,3.60
2022-08-22T08:53:06.418Z,3.60
2022-08-22T08:56:01.838Z,3.50
2022-08-22T08:58:40.752Z,3.10
2022-08-22T09:01:31.140Z,3.10
2022-08-22T09:04:40.425Z,3.50
2022-08-22T09:07:35.344Z,3.60
2022-08-22T09:10:13.923Z,3.40
2022-08-22T09:13:00.453Z,3.50
2022-08-22T09:16:08.169Z,3.20
2022-08-22T09:19:07.985Z,3.30
2022-08-22T09:21:57.184Z,3.40
2022-08-22T09:25:09.193Z,3.50
2022-08-22T09:27:52.524Z,3.90
2022-08-22T09:30:27.776Z,3.60
2022-08-22T09:33:06.650Z,3.80
2022-08-22T09:36:00.977Z,3.70
2022-08-22T09:41:58.808Z,4.10
2022-08-22T09:44:48.534Z,4.10
2022-08-22T09:47:39.888Z,4.20
2022-08-22T09:50:17.726Z,4.00
2022-08-22T09:53:09.808Z,4.70
2022-08-22T09:55:57.188Z,4.40
2022-08-22T09:59:12.307Z,5.10
2022-08-22T10:02:16.401Z,4.30
2022-08-22T10:04:57.307Z,4.60
2022-08-22T10:07:54.794Z,4.40
2022-08-22T10:10:39.321Z,4.30
2022-08-22T10:13:29.533Z,4.30
2022-08-22T10:16:05.405Z,15.10
2022-08-22T10:18:37.569Z,9.70
2022-08-22T10:21:15.634Z,6.80
2022-08-22T10:24:01.137Z,5.20
2022-08-22T10:26:49.342Z,4.60
2022-08-22T10:29:26.139Z,4.30
2022-08-22T10:32:01.374Z,4.60
2022-08-22T10:34:39.836Z,4.20
2022-08-22T10:37:23.814Z,4.30
2022-08-22T10:40:30.621Z,4.30
2022-08-22T10:43:12.782Z,4.60
2022-08-22T10:45:43.613Z,4.30
2022-08-22T10:48:11.231Z,4.20
2022-08-22T10:50:48.791Z,4.70
2022-08-22T10:53:51.690Z,3.90
2022-08-22T10:59:08.369Z,4.50
2022-08-22T11:01:45.347Z,3.60
2022-08-22T11:04:30.825Z,4.20
2022-08-22T11:09:39.086Z,3.90
2022-08-22T11:12:19.307Z,4.20
2022-08-22T11:15:04.601Z,3.90
2022-08-22T11:17:54.205Z,4.00
2022-08-22T11:20:40.765Z,3.70
2022-08-22T11:23:48.322Z,3.70
2022-08-22T11:26:33.698Z,3.50
2022-08-22T11:29:14.028Z,3.60
2022-08-22T11:32:05.664Z,3.30
2022-08-22T11:34:47.905Z,3.50
2022-08-22T11:37:43.673Z,3.40
2022-08-22T11:40:17.815Z,3.40
2022-08-22T11:43:21.949Z,3.70
2022-08-22T11:45:53.670Z,3.50
2022-08-22T11:48:38.982Z,3.30
2022-08-22T11:51:16.255Z,3.20
2022-08-22T11:54:19.904Z,3.60
2022-08-22T11:56:59.617Z,3.20
2022-08-22T11:59:53.006Z,3.30
2022-08-22T12:02:38.305Z,3.40
2022-08-22T12:05:13.697Z,3.60
2022-08-22T12:08:11.252Z,3.30
2022-08-22T12:10:57.922Z,3.40
2022-08-22T12:13:44.291Z,3.10
2022-08-22T12:16:22.171Z,3.10
2022-08-22T12:19:07.052Z,3.20
2022-08-22T12:22:02.186Z,3.20
2022-08-22T12:24:30.847Z,3.50
2022-08-22T12:27:28.449Z,3.60
2022-08-22T12:30:20.537Z,3.60
2022-08-22T12:33:06.412Z,3.30
2022-08-22T12:35:39.841Z,3.10
2022-08-22T12:38:28.350Z,3.50
2022-08-22T12:41:38.436Z,3.30
2022-08-22T12:44:19.667Z,3.20
2022-08-22T12:47:20.657Z,3.30
2022-08-22T12:49:56.949Z,3.30
2022-08-22T12:53:18.258Z,3.70
2022-08-22T12:56:05.145Z,3.00
2022-08-22T12:58:51.129Z,3.10
2022-08-22T13:01:20.327Z,3.00
2022-08-22T13:03:57.199Z,3.40
2022-08-22T13:06:33.649Z,3.50
2022-08-22T13:09:32.380Z,3.20
2022-08-22T13:12:13.374Z,3.20
2022-08-22T13:14:51.895Z,3.40
2022-08-22T13:19:57.633Z,3.30
2022-08-22T13:22:30.625Z,3.20
2022-08-22T13:25:05.716Z,3.10
2022-08-22T13:27:51.058Z,3.30
2022-08-22T13:30:26.438Z,7.60
2022-08-22T13:33:01.836Z,13.70
2022-08-22T13:35:44.829Z,3.90
2022-08-22T13:38:34.800Z,3.80
2022-08-22T13:41:05.908Z,3.50
2022-08-22T13:43:55.021Z,3.10
2022-08-22T13:46:28.126Z,3.30
2022-08-22T13:49:01.168Z,2.80
2022-08-22T13:51:47.472Z,3.30
2022-08-22T13:54:15.149Z,3.50
2022-08-22T13:57:08.244Z,3.30
2022-08-22T13:59:51.667Z,3.80
2022-08-22T14:02:39.087Z,3.70
2022-08-22T14:05:18.871Z,3.30
2022-08-22T14:08:13.002Z,3.10
2022-08-22T14:10:55.210Z,3.30
2022-08-22T14:13:39.247Z,3.70
2022-08-22T14:16:29.774Z,3.40
2022-08-22T14:19:08.478Z,3.40
2022-08-22T14:21:43.558Z,3.20
2022-08-22T14:24:27.108Z,3.40
2022-08-22T14:27:05.107Z,3.00
2022-08-22T14:29:41.815Z,3.20
2022-08-22T14:32:22.570Z,2.90
2022-08-22T14:35:21.654Z,3.30
2022-08-22T14:37:58.461Z,3.30
2022-08-22T14:40:32.814Z,3.20
2022-08-22T14:43:06.304Z,3.20
2022-08-22T14:45:39.114Z,3.00
2022-08-22T14:48:31.225Z,2.80
2022-08-22T14:51:08.414Z,3.20
2022-08-22T14:53:39.342Z,3.00
2022-08-22T14:56:22.032Z,3.20
2022-08-22T14:59:12.428Z,3.00
2022-08-22T15:06:59.293Z,3.20
2022-08-22T15:09:34.783Z,3.10
2022-08-22T15:12:08.674Z,3.60
2022-08-22T15:14:38.164Z,3.70
2022-08-22T15:17:09.262Z,3.90
2022-08-22T15:19:43.129Z,4.20
2022-08-22T15:22:27.673Z,4.20
2022-08-22T15:24:57.105Z,4.30
2022-08-22T15:27:25.797Z,4.30
2022-08-22T15:30:18.863Z,4.70
2022-08-22T15:32:49.156Z,3.90
2022-08-22T15:35:29.928Z,3.80
2022-08-22T15:38:01.670Z,3.30
2022-08-22T15:40:43.012Z,3.20
2022-08-22T15:43:35.055Z,3.90
2022-08-22T15:46:21.298Z,3.20
2022-08-22T15:49:19.886Z,3.20
2022-08-22T15:51:59.415Z,3.70
2022-08-22T15:54:51.289Z,3.30
2022-08-22T15:57:24.151Z,3.40
2022-08-22T15:59:57.485Z,3.20
2022-08-22T16:02:40.116Z,3.20
2022-08-22T16:05:11.279Z,3.40
2022-08-22T16:07:41.330Z,4.00
2022-08-22T16:10:23.836Z,3.80
2022-08-22T16:15:47.091Z,3.10
2022-08-22T16:18:33.340Z,3.70
2022-08-22T16:21:05.405Z,3.90
2022-08-22T16:23:55.591Z,3.30
2022-08-22T16:26:23.840Z,3.60
2022-08-22T16:29:03.384Z,3.60
2022-08-22T16:31:31.038Z,4.00
2022-08-22T16:34:18.674Z,4.30
2022-08-22T16:36:51.479Z,3.90
2022-08-22T16:39:22.141Z,4.00
2022-08-22T16:42:23.530Z,3.60
2022-08-22T16:45:06.116Z,3.80
2022-08-22T16:50:19.667Z,3.60
2022-08-22T16:53:06.047Z,3.90
2022-08-22T16:55:36.298Z,3.60
2022-08-22T16:58:17.362Z,4.00
2022-08-22T17:01:17.078Z,3.60
2022-08-22T17:04:06.726Z,4.00
2022-08-22T17:06:51.674Z,4.10
2022-08-22T17:09:41.271Z,4.40
2022-08-22T17:12:27.220Z,3.20
2022-08-22T17:15:30.981Z,2.90
2022-08-22T17:18:12.193Z,3.70
2022-08-22T17:20:58.351Z,3.60
2022-08-22T17:23:53.715Z,3.70
2022-08-22T17:26:33.312Z,3.80
2022-08-22T17:29:21.956Z,4.00
2022-08-22T17:32:16.717Z,4.60
2022-08-22T17:35:38.344Z,4.30
2022-08-22T17:38:30.534Z,3.60
2022-08-22T17:41:39.543Z,4.00
2022-08-22T17:44:32.037Z,4.10
2022-08-22T17:47:14.910Z,4.10
2022-08-22T17:49:42.543Z,4.40
2022-08-22T17:52:25.418Z,4.70
2022-08-22T17:55:00.997Z,4.90
2022-08-22T17:57:33.364Z,4.20
2022-08-22T18:00:16.106Z,4.30
2022-08-22T18:02:54.954Z,3.80
2022-08-22T18:05:31.039Z,4.60
2022-08-22T18:08:37.356Z,4.80
2022-08-22T18:11:09.754Z,5.30
2022-08-22T18:14:16.327Z,4.50
2022-08-22T18:16:47.853Z,4.10
2022-08-22T18:19:34.366Z,4.40
2022-08-22T18:22:17.941Z,4.40
2022-08-22T18:24:54.543Z,4.90
2022-08-22T18:27:35.224Z,5.00
2022-08-22T18:30:12.195Z,4.20
2022-08-22T18:32:52.982Z,5.20
2022-08-22T18:35:42.352Z,5.00
2022-08-22T18:38:36.051Z,5.50
2022-08-22T18:41:21.731Z,5.90
2022-08-22T18:43:51.009Z,5.20
2022-08-22T18:46:44.761Z,8.00
2022-08-22T18:49:24.534Z,8.90
2022-08-22T18:52:10.072Z,8.20
2022-08-22T18:54:43.410Z,7.10
2022-08-22T18:57:40.528Z,5.90
2022-08-22T19:00:17.089Z,6.30
2022-08-22T19:03:04.180Z,5.90
2022-08-22T19:05:41.016Z,4.90
2022-08-22T19:08:36.840Z,4.90
2022-08-22T19:11:20.219Z,5.30
2022-08-22T19:14:05.721Z,5.10
2022-08-22T19:16:49.154Z,5.40
2022-08-22T19:19:52.579Z,5.00
2022-08-22T19:22:22.492Z,5.00
2022-08-22T19:25:26.399Z,17.90
2022-08-22T19:27:57.013Z,11.00
2022-08-22T19:30:33.923Z,7.00
2022-08-22T19:33:06.217Z,7.90
2022-08-22T19:35:57.934Z,7.00
2022-08-22T19:38:57.597Z,6.70
2022-08-22T19:41:42.879Z,5.50
2022-08-22T19:44:17.776Z,5.90
2022-08-22T19:46:59.371Z,6.60
2022-08-22T19:49:30.798Z,8.00
2022-08-22T19:52:27.783Z,6.30
2022-08-22T19:55:06.786Z,6.20
2022-08-22T19:57:52.622Z,5.00
2022-08-22T20:00:48.364Z,5.90
2022-08-22T20:03:56.872Z,6.60
2022-08-22T20:06:43.564Z,6.30
2022-08-22T20:09:26.868Z,5.60
2022-08-22T20:12:24.237Z,5.80
2022-08-22T20:14:52.012Z,5.70
2022-08-22T20:17:25.833Z,5.80
2022-08-22T20:22:47.062Z,6.30
2022-08-22T20:25:41.457Z,5.40
2022-08-22T20:28:29.994Z,6.10
2022-08-22T20:31:01.564Z,5.90
2022-08-22T20:33:34.992Z,6.00
2022-08-22T20:36:06.866Z,6.10
2022-08-22T20:38:55.695Z,6.80
2022-08-22T20:41:32.536Z,5.50
2022-08-22T20:44:03.214Z,5.30
2022-08-22T20:46:46.129Z,5.40
2022-08-22T20:49:20.399Z,5.70
2022-08-22T20:51:58.502Z,5.40
2022-08-22T20:54:33.286Z,6.30
2022-08-22T20:57:23.603Z,5.50
2022-08-22T21:00:14.013Z,5.40
2022-08-22T21:03:08.715Z,5.60
2022-08-22T21:05:42.339Z,5.90
2022-08-22T21:08:22.389Z,6.30
2022-08-22T21:11:16.758Z,5.70
2022-08-22T21:13:44.443Z,5.60
2022-08-22T21:16:31.945Z,6.50
2022-08-22T21:19:03.183Z,6.10
2022-08-22T21:21:35.057Z,6.50
2022-08-22T21:24:07.150Z,6.60
2022-08-22T21:26:46.251Z,5.80
2022-08-22T21:29:13.849Z,6.00
2022-08-22T21:31:46.477Z,6.20
2022-08-22T21:36:43.608Z,6.30
2022-08-22T21:39:20.475Z,6.30
2022-08-22T21:42:00.373Z,6.50
2022-08-22T21:44:32.111Z,6.70
2022-08-22T21:47:30.786Z,6.80
2022-08-22T21:50:00.408Z,6.70
2022-08-22T21:52:31.143Z,7.20
2022-08-22T21:55:27.939Z,6.10
2022-08-22T21:58:36.857Z,6.60
2022-08-22T22:01:27.889Z,6.00
2022-08-22T22:03:58.295Z,7.10
2022-08-22T22:06:26.452Z,7.00
2022-08-22T22:08:54.475Z,6.60
2022-08-22T22:11:22.387Z,6.40
2022-08-22T22:13:50.076Z,6.20
2022-08-22T22:16:23.294Z,6.60
2022-08-22T22:18:50.966Z,7.10
2022-08-22T22:21:18.887Z,6.50
2022-08-22T22:23:46.806Z,5.80
2022-08-22T22:26:14.614Z,6.00
2022-08-22T22:28:49.071Z,6.60
2022-08-22T22:31:18.343Z,6.50
2022-08-22T22:33:46.334Z,6.90
2022-08-22T22:36:22.691Z,6.90
2022-08-22T22:38:52.013Z,6.10
2022-08-22T22:41:25.558Z,6.70
2022-08-22T22:43:53.686Z,7.10
2022-08-22T22:46:22.328Z,6.40
2022-08-22T22:48:50.183Z,6.30
2022-08-22T22:51:18.014Z,7.10
2022-08-22T22:53:46.457Z,7.10
2022-08-22T22:56:17.848Z,7.20
2022-08-22T22:58:50.707Z,6.70
2022-08-22T23:01:28.784Z,6.20
2022-08-22T23:03:58.223Z,6.90
2022-08-22T23:06:28.027Z,7.20
2022-08-22T23:08:56.284Z,7.10
2022-08-22T23:11:26.790Z,7.10
2022-08-22T23:13:55.371Z,6.50
2022-08-22T23:16:27.005Z,6.60
2022-08-22T23:18:55.618Z,7.00
2022-08-22T23:21:28.774Z,7.20
2022-08-22T23:23:58.395Z,6.60
2022-08-22T23:26:27.450Z,6.60
2022-08-22T23:28:55.310Z,6.60
2022-08-22T23:31:33.195Z,6.50
2022-08-22T23:34:13.116Z,7.00
2022-08-22T23:36:43.599Z,6.80
2022-08-22T23:39:12.580Z,6.50
2022-08-22T23:41:41.280Z,6.70
2022-08-22T23:44:13.498Z,6.60
2022-08-22T23:49:09.457Z,6.50
2022-08-22T23:51:37.688Z,6.80
2022-08-22T23:54:05.580Z,6.30
2022-08-22T23:56:36.493Z,6.20
2022-08-22T23:59:06.648Z,5.90
